Harp Township, Illinois
Current Conditions -  °F | °C
As of 10:35 AM on Thursday 23 Oct 2014 (Local Time) from KAAA Reporting Station
Clear Clear  
Wind Chill: 52°   Ceiling: Unl
Heat Index: 52°   Visibility: 10mi
Dew Point: 44°   Wind: 9mph
Humidity: 73%   Direction: 180°S
Pressure: 30.21"   Gusts: NA
Location:  40.143°N, 88.9637°W
Report Text: KAAA 231535Z AUTO 18008KT 10SM CLR 11/07 A3021 RMK AO2 T01110065
Loading
Personal Weather Stations






























Interactive Weather Map New forecast layout! Learn more

10-Day Weather Forecast

Advertisements
Track Severe Weather on mobile